Terminal Aerodrome Forecast
Issued by NWS

Home | Current Version | Previous Version | Text Only | Print | Product List | Glossary On
Versions: 1 2 3 4 5 6 7 8 9 10 11 12 13 14 15 16 17 18 19 20
930
FTPA31 PHFO 300540
TAFHMK
TAF
PHMK 300540Z 3006/3106 04010KT P6SM FEW025 BKN200
     FM302000 04016G27KT P6SM FEW025 SCT070
     FM310200 05015G25KT P6SM VCSH SCT025 BKN045=

USA.gov is the U.S. government's official web portal to all federal, state and local government web resources and services.